Time;durP1;ratioP1;P1;durP2;ratioP2;P2;SDS_P1;SDS_P2;PMS_P1;PMS_P2;Temp;Humidity;BMP_temperature;BMP_pressure;BME280_temperature;BME280_humidity;BME280_pressure;Samples;Min_cycle;Max_cycle;Signal;HPM_P1;HPM_P2
2022/02/24 00:00:20;;;;;;;17.73;2.67;;;;;;;7.36;63.55;101646.78;5050973;28;20056;-66
2022/02/24 00:02:46;;;;;;;9.98;3.05;;;;;;;7.29;63.13;101653.78;5053489;28;20064;-66
2022/02/24 00:05:12;;;;;;;8.38;2.05;;;;;;;7.30;62.69;101634.59;5047067;28;20884;-65
2022/02/24 00:07:37;;;;;;;18.67;2.30;;;;;;;7.39;62.60;101638.00;5047768;28;20029;-64
2022/02/24 00:10:05;;;;;;;12.98;2.28;;;;;;;7.33;62.53;101631.94;5046916;28;20440;-66
2022/02/24 00:12:30;;;;;;;11.20;2.28;;;;;;;7.40;62.22;101616.13;5027955;28;20488;-66
2022/02/24 00:14:56;;;;;;;13.15;2.60;;;;;;;7.40;62.31;101617.00;5043096;28;20047;-65
2022/02/24 00:17:22;;;;;;;15.18;2.45;;;;;;;7.37;62.53;101614.41;5047834;28;20483;-67
2022/02/24 00:19:47;;;;;;;12.93;2.75;;;;;;;7.35;62.61;101610.94;5045445;28;20082;-66
2022/02/24 00:22:13;;;;;;;15.60;2.40;;;;;;;7.31;62.73;101609.22;5037851;28;20083;-66
2022/02/24 00:24:38;;;;;;;14.57;2.47;;;;;;;7.33;62.65;101603.09;5029926;28;20024;-65
2022/02/24 00:27:03;;;;;;;15.00;2.65;;;;;;;7.30;62.90;101600.50;5047523;28;20108;-64
2022/02/24 00:29:29;;;;;;;12.60;2.50;;;;;;;7.32;63.07;101605.72;5045862;28;20027;-66
2022/02/24 00:31:54;;;;;;;12.38;2.28;;;;;;;7.32;63.14;101600.50;5046916;28;20028;-66
2022/02/24 00:34:22;;;;;;;9.68;2.72;;;;;;;7.32;63.48;101605.72;5046958;28;20108;-64
2022/02/24 00:36:52;;;;;;;13.00;2.73;;;;;;;7.33;63.32;101596.97;5047347;28;20512;-67
2022/02/24 00:39:18;;;;;;;11.50;2.50;;;;;;;7.31;63.17;101604.84;5047492;28;20067;-65
2022/02/24 00:41:43;;;;;;;15.15;2.83;;;;;;;7.36;62.93;101596.94;5048224;28;20013;-65
2022/02/24 00:44:08;;;;;;;15.45;2.40;;;;;;;7.31;63.36;101596.09;5039394;28;20499;-65
2022/02/24 00:46:33;;;;;;;15.73;2.80;;;;;;;7.37;62.92;101605.69;5045978;28;20486;-65
2022/02/24 00:48:59;;;;;;;16.42;2.38;;;;;;;7.31;63.27;101596.97;5044445;28;20028;-65
2022/02/24 00:51:24;;;;;;;10.30;2.95;;;;;;;7.30;63.46;101594.38;5047339;28;20041;-65
2022/02/24 00:53:49;;;;;;;14.65;2.40;;;;;;;7.28;63.10;101589.16;5044262;28;20463;-65
2022/02/24 00:56:15;;;;;;;15.02;2.17;;;;;;;7.37;63.02;101576.84;5039169;28;20029;-66
2022/02/24 00:58:40;;;;;;;17.98;2.80;;;;;;;7.38;63.29;101583.81;5039011;28;20025;-67
2022/02/24 01:01:05;;;;;;;15.10;2.33;;;;;;;7.29;63.44;101580.38;5029597;28;20502;-66
2022/02/24 01:03:31;;;;;;;14.88;3.40;;;;;;;7.32;63.32;101571.66;5026280;28;20049;-68
2022/02/24 01:05:56;;;;;;;19.40;2.63;;;;;;;7.32;63.63;101566.41;5032961;28;20663;-65
2022/02/24 01:08:21;;;;;;;16.73;2.53;;;;;;;7.33;63.71;101574.25;5044826;28;20017;-65
2022/02/24 01:10:47;;;;;;;13.52;2.33;;;;;;;7.26;64.18;101559.47;5045996;28;20500;-67
2022/02/24 01:13:12;;;;;;;11.20;2.20;;;;;;;7.31;63.98;101562.91;5047945;28;20022;-66
2022/02/24 01:15:41;;;;;;;17.13;2.78;;;;;;;7.36;63.97;101554.13;5039580;28;20053;-67
2022/02/24 01:18:07;;;;;;;22.15;4.07;;;;;;;7.34;64.03;101564.63;5037380;28;20025;-68
2022/02/24 01:20:32;;;;;;;17.55;3.58;;;;;;;7.36;63.89;101554.13;5038406;28;20036;-67
2022/02/24 01:22:57;;;;;;;10.43;2.45;;;;;;;7.35;64.09;101553.28;5046882;28;20025;-66
2022/02/24 01:25:23;;;;;;;11.68;2.10;;;;;;;7.41;63.82;101562.81;5043738;28;20029;-66
2022/02/24 01:27:48;;;;;;;7.85;2.50;;;;;;;7.41;63.78;101552.34;5036010;28;20064;-66
2022/02/24 01:30:14;;;;;;;16.73;3.05;;;;;;;7.42;64.01;101544.47;5026059;28;20056;-66
2022/02/24 01:32:40;;;;;;;17.77;2.78;;;;;;;7.42;64.27;101538.34;5027176;28;20125;-68
2022/02/24 01:35:06;;;;;;;14.18;2.70;;;;;;;7.45;64.32;101530.44;5037118;28;20143;-65
2022/02/24 01:37:31;;;;;;;11.90;2.47;;;;;;;7.40;64.61;101524.34;5044412;28;20024;-65
2022/02/24 01:39:57;;;;;;;9.85;2.80;;;;;;;7.37;64.41;101527.03;5035465;28;20369;-66
2022/02/24 01:42:22;;;;;;;16.52;2.58;;;;;;;7.40;64.67;101519.13;5046960;28;20040;-65
2022/02/24 01:44:48;;;;;;;11.80;2.75;;;;;;;7.35;65.05;101506.06;5046869;28;20592;-65
2022/02/24 01:47:14;;;;;;;11.90;3.30;;;;;;;7.38;65.02;101492.06;5047273;28;20029;-68
2022/02/24 01:49:40;;;;;;;16.58;3.33;;;;;;;7.41;65.39;101492.03;5046452;28;20021;-65
2022/02/24 01:52:07;;;;;;;17.45;3.30;;;;;;;7.36;65.51;101488.56;5046828;28;20107;-65
2022/02/24 01:54:35;;;;;;;14.43;3.05;;;;;;;7.34;65.88;101480.72;5049534;28;20023;-65
2022/02/24 01:57:02;;;;;;;11.38;2.67;;;;;;;7.35;65.96;101478.97;5048622;28;20416;-65
2022/02/24 01:59:27;;;;;;;12.48;2.75;;;;;;;7.38;65.86;101476.31;5047928;28;20025;-67
2022/02/24 02:01:53;;;;;;;19.88;2.75;;;;;;;7.35;65.87;101473.75;5049528;28;20422;-65
2022/02/24 02:04:18;;;;;;;20.58;2.88;;;;;;;7.42;65.82;101467.53;5049295;28;20053;-66
2022/02/24 02:06:44;;;;;;;14.55;2.83;;;;;;;7.40;66.08;101469.28;5048819;28;20067;-66
2022/02/24 02:09:10;;;;;;;17.05;3.15;;;;;;;7.36;66.03;101460.63;5050694;28;20021;-66
2022/02/24 02:11:36;;;;;;;18.30;3.17;;;;;;;7.39;66.29;101451.84;5050051;28;20108;-65
2022/02/24 02:14:01;;;;;;;8.70;2.33;;;;;;;7.35;66.20;101452.75;5050272;28;20540;-65
2022/02/24 02:16:27;;;;;;;18.83;3.47;;;;;;;7.38;66.08;101448.38;5050178;28;20415;-66
2022/02/24 02:18:52;;;;;;;5.72;1.70;;;;;;;7.40;65.88;101446.59;5049395;28;20028;-66
2022/02/24 02:21:17;;;;;;;23.88;3.28;;;;;;;7.40;65.99;101446.59;5049994;28;20487;-67
2022/02/24 02:23:42;;;;;;;9.20;2.20;;;;;;;7.40;66.14;101451.81;5049136;28;20033;-65
2022/02/24 02:26:08;;;;;;;12.20;2.60;;;;;;;7.45;65.85;101451.78;5057798;28;20382;-67
2022/02/24 02:28:34;;;;;;;12.80;2.60;;;;;;;7.45;65.90;101442.16;5068524;28;20236;-65
2022/02/24 02:31:00;;;;;;;18.40;2.45;;;;;;;7.44;65.68;101439.56;5067739;28;20035;-65
2022/02/24 02:33:25;;;;;;;12.68;2.67;;;;;;;7.49;65.49;101434.28;5068877;28;20025;-65
2022/02/24 02:35:51;;;;;;;12.65;2.58;;;;;;;7.39;66.34;101433.50;5068308;28;20162;-65
2022/02/24 02:38:16;;;;;;;16.52;3.08;;;;;;;7.35;66.17;101434.41;5069922;28;20115;-65
2022/02/24 02:40:41;;;;;;;11.90;2.33;;;;;;;7.39;65.90;101421.25;5069124;28;20024;-68
2022/02/24 02:43:08;;;;;;;15.65;3.58;;;;;;;7.41;66.05;101423.88;5041021;28;20065;-66
2022/02/24 02:45:34;;;;;;;12.73;2.53;;;;;;;7.40;65.82;101428.22;5028982;28;20499;-66
2022/02/24 02:48:01;;;;;;;10.30;2.70;;;;;;;7.45;65.58;101405.47;5033723;28;20493;-67
2022/02/24 02:50:27;;;;;;;11.70;2.60;;;;;;;7.44;65.75;101415.97;5049397;28;20033;-67
2022/02/24 02:52:53;;;;;;;12.65;1.95;;;;;;;7.49;65.72;101414.13;5058304;28;20226;-66
2022/02/24 02:55:19;;;;;;;12.40;2.90;;;;;;;7.49;65.59;101408.03;5069075;28;20027;-67
2022/02/24 02:57:44;;;;;;;14.75;2.63;;;;;;;7.51;65.51;101404.50;5068189;28;20028;-65
2022/02/24 03:00:11;;;;;;;13.68;3.53;;;;;;;7.51;65.29;101396.66;5068286;28;20020;-64
2022/02/24 03:02:37;;;;;;;11.27;2.60;;;;;;;7.46;65.56;101383.59;5068366;28;20036;-64
2022/02/24 03:05:02;;;;;;;11.50;2.97;;;;;;;7.49;65.69;101390.53;5069209;28;20505;-65
2022/02/24 03:07:28;;;;;;;12.13;3.13;;;;;;;7.45;65.61;101375.72;5068752;28;20032;-67
2022/02/24 03:09:53;;;;;;;12.50;2.70;;;;;;;7.46;65.68;101372.22;5048906;28;20033;-64
2022/02/24 03:12:18;;;;;;;14.75;3.13;;;;;;;7.49;65.85;101377.44;5049092;28;20040;-64
2022/02/24 03:14:46;;;;;;;20.38;3.58;;;;;;;7.41;65.91;101364.41;5049843;28;20033;-66
2022/02/24 03:17:13;;;;;;;13.87;2.60;;;;;;;7.38;66.07;101364.47;5050039;28;20045;-65
2022/02/24 03:19:39;;;;;;;10.20;2.08;;;;;;;7.32;66.31;101354.91;5069048;28;20035;-66
2022/02/24 03:22:11;;;;;;;13.13;2.75;;;;;;;7.35;66.00;101348.78;5068352;28;20041;-66
2022/02/24 03:24:36;;;;;;;13.13;2.30;;;;;;;7.35;66.19;101342.66;5068964;28;20052;-66
2022/02/24 03:27:02;;;;;;;10.60;2.38;;;;;;;7.29;66.33;101343.59;5068412;28;20109;-65
2022/02/24 03:29:28;;;;;;;15.73;2.70;;;;;;;7.23;66.87;101338.41;5067754;28;20025;-67
2022/02/24 03:31:53;;;;;;;14.48;2.85;;;;;;;7.22;66.73;101337.53;5068101;28;20031;-64
2022/02/24 03:34:19;;;;;;;10.98;2.60;;;;;;;7.29;66.58;101333.97;5067859;28;20485;-65
2022/02/24 03:36:44;;;;;;;13.75;2.97;;;;;;;7.29;66.54;101333.13;5069006;28;20025;-64
2022/02/24 03:39:09;;;;;;;16.05;3.08;;;;;;;7.28;66.34;101331.34;5056746;28;20041;-64
2022/02/24 03:41:35;;;;;;;12.93;2.42;;;;;;;7.22;66.63;101331.47;5047520;28;20040;-65
2022/02/24 03:44:00;;;;;;;12.85;2.90;;;;;;;7.22;66.41;101337.53;5052316;28;20016;-65
2022/02/24 03:46:26;;;;;;;10.45;2.47;;;;;;;7.22;66.70;101323.59;5068557;28;20085;-66
2022/02/24 03:48:51;;;;;;;13.63;3.08;;;;;;;7.28;66.50;101328.72;5066335;28;20158;-65
2022/02/24 03:51:17;;;;;;;16.38;3.05;;;;;;;7.31;66.42;101321.72;5068434;28;20047;-66
2022/02/24 03:53:43;;;;;;;18.08;2.97;;;;;;;7.29;66.68;101322.63;5068613;28;20106;-65
2022/02/24 03:56:08;;;;;;;21.77;2.83;;;;;;;7.31;66.63;101321.72;5067959;28;20020;-67
2022/02/24 03:58:33;;;;;;;16.23;3.00;;;;;;;7.26;66.82;101318.28;5068460;28;20091;-65
2022/02/24 04:00:59;;;;;;;9.25;2.45;;;;;;;7.24;66.99;101316.56;5067955;28;20021;-66
2022/02/24 04:03:24;;;;;;;18.13;3.75;;;;;;;7.24;67.29;101316.56;5067098;28;20075;-67
2022/02/24 04:05:49;;;;;;;17.85;2.47;;;;;;;7.27;67.15;101309.53;5067629;28;20044;-66
2022/02/24 04:08:15;;;;;;;16.85;3.45;;;;;;;7.26;67.13;101293.81;5062496;28;20047;-65
2022/02/24 04:10:40;;;;;;;14.65;2.70;;;;;;;7.28;67.14;101292.91;5068133;28;20044;-67
2022/02/24 04:13:06;;;;;;;12.20;3.47;;;;;;;7.26;67.28;101299.94;5066553;28;20020;-66
2022/02/24 04:15:31;;;;;;;11.50;3.45;;;;;;;7.24;67.67;101304.34;5066752;28;20029;-65
2022/02/24 04:17:56;;;;;;;14.57;2.72;;;;;;;7.26;67.34;101306.94;5066836;28;20031;-65
2022/02/24 04:20:22;;;;;;;11.18;2.97;;;;;;;7.20;67.82;101297.41;5066680;28;20490;-66
2022/02/24 04:22:47;;;;;;;16.08;3.00;;;;;;;7.19;67.73;101298.25;5067537;28;20475;-65
2022/02/24 04:25:12;;;;;;;16.25;3.85;;;;;;;7.17;68.09;101287.78;5068347;28;20051;-65
2022/02/24 04:27:48;;;;;;;17.13;3.13;;;;;;;7.20;67.48;101282.53;5064781;28;20382;-67
2022/02/24 04:30:14;;;;;;;11.70;3.00;;;;;;;7.23;67.43;101286.88;5048048;28;20036;-64
2022/02/24 04:32:40;;;;;;;12.63;2.85;;;;;;;7.22;68.01;101277.25;5046069;28;20029;-64
2022/02/24 04:35:06;;;;;;;12.77;3.15;;;;;;;7.22;68.00;101272.00;5045051;28;20071;-64
2022/02/24 04:37:32;;;;;;;15.98;3.30;;;;;;;7.17;68.38;101277.31;5047769;28;20028;-66
2022/02/24 04:39:57;;;;;;;24.02;3.25;;;;;;;7.15;68.27;101272.97;5047518;28;20036;-64
2022/02/24 04:42:23;;;;;;;14.88;2.97;;;;;;;7.07;68.64;101286.19;5047596;28;20024;-65
2022/02/24 04:44:48;;;;;;;18.15;2.45;;;;;;;7.14;68.62;101279.13;5043821;28;20018;-65
2022/02/24 04:47:13;;;;;;;13.18;2.90;;;;;;;7.11;68.64;101277.41;5035950;28;20025;-65
2022/02/24 04:49:38;;;;;;;14.50;2.67;;;;;;;7.08;68.77;101273.06;5027608;28;20399;-66
2022/02/24 04:52:04;;;;;;;10.38;2.85;;;;;;;7.10;68.80;101265.19;5034426;28;22733;-66
2022/02/24 04:54:29;;;;;;;14.80;3.03;;;;;;;7.14;68.68;101266.03;5061600;28;20032;-66
2022/02/24 04:56:55;;;;;;;20.08;3.13;;;;;;;7.11;68.73;101263.44;5060687;28;20039;-66
2022/02/24 04:59:20;;;;;;;18.00;3.40;;;;;;;7.06;69.01;101264.38;5066079;28;20047;-65
2022/02/24 05:01:45;;;;;;;17.08;3.00;;;;;;;7.08;68.90;101259.94;5066290;28;20056;-65
2022/02/24 05:04:11;;;;;;;8.43;2.45;;;;;;;7.10;68.73;101256.47;5050922;28;20107;-64
2022/02/24 05:06:36;;;;;;;18.73;2.95;;;;;;;7.07;69.09;101249.50;5035534;28;20448;-65
2022/02/24 05:09:02;;;;;;;19.52;3.33;;;;;;;7.11;68.95;101245.09;5027206;28;20387;-67
2022/02/24 05:11:27;;;;;;;14.80;3.00;;;;;;;7.19;68.87;101248.47;5039635;28;20071;-66
2022/02/24 05:13:52;;;;;;;15.10;3.13;;;;;;;7.15;69.07;101252.03;5046397;28;20112;-66
2022/02/24 05:16:18;;;;;;;16.85;2.97;;;;;;;7.19;68.73;101246.72;5040713;28;20024;-66
2022/02/24 05:18:43;;;;;;;10.63;2.83;;;;;;;7.24;68.54;101235.31;5036061;28;20040;-66
2022/02/24 05:21:08;;;;;;;15.07;3.15;;;;;;;7.25;68.50;101230.03;5033403;28;20059;-68
2022/02/24 05:23:34;;;;;;;13.93;3.42;;;;;;;7.23;68.76;101234.44;5040616;28;20079;-66
2022/02/24 05:25:59;;;;;;;18.85;3.53;;;;;;;7.24;68.85;101222.19;5039219;28;20495;-70
2022/02/24 05:28:24;;;;;;;13.18;3.00;;;;;;;7.24;68.49;101209.09;5034808;28;20028;-70
2022/02/24 05:30:58;;;;;;;11.68;2.88;;;;;;;7.22;68.53;101201.25;5026933;28;20029;-66
2022/02/24 05:33:23;;;;;;;13.57;3.15;;;;;;;7.24;68.35;101204.72;5030546;28;20037;-68
2022/02/24 05:35:48;;;;;;;11.70;2.75;;;;;;;7.28;68.42;101200.28;5043932;28;20009;-67
2022/02/24 05:38:14;;;;;;;12.57;2.50;;;;;;;7.24;68.19;101193.38;5059132;28;20029;-65
2022/02/24 05:40:39;;;;;;;15.15;2.70;;;;;;;7.18;68.64;101186.47;5053385;28;20029;-66
2022/02/24 05:43:04;;;;;;;15.75;3.95;;;;;;;7.19;68.22;101186.44;5030214;28;20432;-68
2022/02/24 05:45:30;;;;;;;11.70;2.88;;;;;;;7.24;68.15;101186.38;5012697;28;20456;-64
2022/02/24 05:47:55;;;;;;;25.23;3.65;;;;;;;7.24;67.81;101172.41;5032098;28;20017;-68
2022/02/24 05:50:20;;;;;;;12.98;2.53;;;;;;;7.24;68.02;101170.66;5042045;28;20032;-66
2022/02/24 05:52:46;;;;;;;7.57;2.45;;;;;;;7.25;67.87;101164.50;5032378;28;20037;-66
2022/02/24 05:55:11;;;;;;;12.85;2.97;;;;;;;7.20;68.40;101156.72;5038497;28;20165;-66
2022/02/24 05:57:36;;;;;;;21.80;3.10;;;;;;;7.22;68.14;101154.06;5030201;28;20025;-68
2022/02/24 06:00:04;;;;;;;11.45;2.97;;;;;;;7.27;67.94;101147.00;5038784;28;20434;-67
2022/02/24 06:02:29;;;;;;;11.80;3.20;;;;;;;7.22;68.20;101154.06;5029344;28;20084;-65
2022/02/24 06:04:54;;;;;;;12.60;2.83;;;;;;;7.17;68.35;101148.03;5030044;28;20041;-66
2022/02/24 06:07:20;;;;;;;15.43;3.70;;;;;;;7.19;68.60;101148.88;5030382;28;20112;-67
2022/02/24 06:09:45;;;;;;;14.40;3.85;;;;;;;7.24;68.14;101146.19;5030144;28;20025;-66
2022/02/24 06:12:10;;;;;;;10.07;2.53;;;;;;;7.19;68.46;101148.88;5039830;28;20036;-66
2022/02/24 06:14:36;;;;;;;13.60;2.83;;;;;;;7.25;68.33;101151.41;5055201;28;20094;-67
2022/02/24 06:17:01;;;;;;;18.73;3.35;;;;;;;7.18;68.42;101136.66;5048749;28;20098;-65
2022/02/24 06:19:26;;;;;;;17.38;3.15;;;;;;;7.16;68.65;101128.81;5049831;28;20393;-66
2022/02/24 06:21:52;;;;;;;16.88;3.50;;;;;;;7.11;68.92;101120.19;5049895;28;20033;-66
2022/02/24 06:24:18;;;;;;;14.40;3.10;;;;;;;7.13;69.00;101120.16;5050004;28;20036;-66
2022/02/24 06:26:44;;;;;;;14.23;2.53;;;;;;;7.16;68.85;101118.34;5047271;28;20021;-66
2022/02/24 06:29:09;;;;;;;12.50;2.97;;;;;;;7.11;69.43;101121.91;5047399;28;20091;-67
2022/02/24 06:31:34;;;;;;;15.48;2.80;;;;;;;7.15;69.10;101115.75;5039370;28;20045;-66
2022/02/24 06:34:04;;;;;;;14.45;3.28;;;;;;;7.17;69.40;101133.16;5047404;28;20111;-64
2022/02/24 06:36:29;;;;;;;;;;;;;;;7.18;69.24;101132.28;5055911;28;20029;-66
2022/02/24 06:38:56;;;;;;;16.63;2.92;;;;;;;7.19;69.11;101122.66;5058213;28;19939;-64
2022/02/24 06:41:21;;;;;;;10.77;2.45;;;;;;;7.23;68.91;101127.00;5056723;28;20457;-66
2022/02/24 06:43:46;;;;;;;13.60;2.80;;;;;;;7.22;69.07;101119.16;5057517;28;20150;-67
2022/02/24 06:46:13;;;;;;;11.50;3.55;;;;;;;7.25;68.97;101112.09;5052926;28;20028;-65
2022/02/24 06:48:39;;;;;;;12.95;2.50;;;;;;;7.24;69.24;101105.13;5028070;28;20119;-65
2022/02/24 06:51:04;;;;;;;12.15;2.60;;;;;;;7.19;69.36;101099.94;5043498;28;20037;-67
2022/02/24 06:53:29;;;;;;;11.05;2.97;;;;;;;7.22;69.45;101106.88;5049042;28;20036;-67
2022/02/24 06:55:55;;;;;;;10.68;3.08;;;;;;;7.26;68.98;101094.63;5048879;28;20009;-66
2022/02/24 06:58:20;;;;;;;14.23;2.90;;;;;;;7.29;68.91;101095.41;5048957;28;20025;-65
2022/02/24 07:00:45;;;;;;;12.48;2.15;;;;;;;7.25;68.82;101088.50;5048562;28;20532;-66
2022/02/24 07:03:11;;;;;;;11.48;2.47;;;;;;;7.32;68.70;101100.59;5045572;28;20045;-68
2022/02/24 07:05:36;;;;;;;13.25;2.65;;;;;;;7.30;68.56;101088.44;5048477;28;20392;-65
2022/02/24 07:08:02;;;;;;;12.75;2.15;;;;;;;7.33;68.63;101073.53;5044846;28;20029;-67
2022/02/24 07:10:27;;;;;;;10.73;2.60;;;;;;;7.32;68.41;101060.44;5040003;28;20076;-65
2022/02/24 07:12:53;;;;;;;12.95;2.50;;;;;;;7.39;67.94;101061.19;5037169;28;20042;-66
2022/02/24 07:15:18;;;;;;;15.73;2.40;;;;;;;7.41;68.20;101064.66;5027983;28;20087;-66
2022/02/24 07:17:45;;;;;;;11.70;2.95;;;;;;;7.45;68.02;101061.09;5028607;28;20445;-66
2022/02/24 07:20:12;;;;;;;11.13;2.35;;;;;;;7.41;68.08;101054.19;5029476;28;20307;-64
2022/02/24 07:22:38;;;;;;;16.10;2.80;;;;;;;7.43;68.36;101050.63;5051015;28;20021;-65
2022/02/24 07:25:04;;;;;;;15.00;2.60;;;;;;;7.39;68.32;101048.97;5053447;28;20036;-64
2022/02/24 07:27:31;;;;;;;12.55;2.55;;;;;;;7.46;68.36;101057.56;5068281;28;20020;-65
2022/02/24 07:29:56;;;;;;;13.20;2.42;;;;;;;7.49;67.97;101049.66;5068166;28;20044;-64
2022/02/24 07:32:21;;;;;;;10.05;2.03;;;;;;;7.53;67.72;101047.84;5067636;28;20483;-67
2022/02/24 07:34:46;;;;;;;11.35;2.80;;;;;;;7.53;67.59;101038.22;5060979;28;20464;-66
2022/02/24 07:37:12;;;;;;;8.95;2.10;;;;;;;7.48;67.67;101032.19;5057835;28;20104;-62
2022/02/24 07:39:37;;;;;;;12.52;2.33;;;;;;;7.50;68.08;101035.66;5053703;28;20025;-61
2022/02/24 07:42:03;;;;;;;13.18;2.60;;;;;;;7.51;67.62;101028.66;5054603;28;20025;-63
2022/02/24 07:44:28;;;;;;;10.15;2.03;;;;;;;7.58;67.55;101011.91;5057124;28;20021;-63
2022/02/24 07:46:54;;;;;;;8.65;2.53;;;;;;;7.62;67.37;101015.34;5055515;28;20368;-66
2022/02/24 07:49:22;;;;;;;8.07;2.67;;;;;;;7.62;67.32;101020.59;5055247;28;20037;-63
2022/02/24 07:51:51;;;;;;;15.38;2.95;;;;;;;7.59;67.22;100996.16;5053484;28;20104;-65
2022/02/24 07:54:17;;;;;;;15.07;2.85;;;;;;;7.66;67.28;100998.66;5056116;28;20469;-66
2022/02/24 07:56:42;;;;;;;9.65;2.08;;;;;;;7.73;66.97;100992.38;5055789;28;20055;-66
2022/02/24 07:59:07;;;;;;;12.30;2.40;;;;;;;7.76;67.11;100999.31;5056281;28;20056;-67
2022/02/24 08:01:33;;;;;;;8.50;2.13;;;;;;;7.77;67.06;101009.78;5054853;28;20395;-66
2022/02/24 08:03:58;;;;;;;5.57;1.92;;;;;;;7.75;67.02;101006.34;5050296;28;20045;-64
2022/02/24 08:06:23;;;;;;;12.30;2.47;;;;;;;7.73;67.04;101007.28;5057184;28;20021;-61
2022/02/24 08:08:49;;;;;;;8.07;1.95;;;;;;;7.76;67.26;101000.19;5065335;28;20020;-65
2022/02/24 08:11:14;;;;;;;9.52;2.40;;;;;;;7.80;67.45;101003.66;5064826;28;20020;-67
2022/02/24 08:13:40;;;;;;;16.60;2.55;;;;;;;7.79;67.22;100992.28;5058197;28;20458;-64
2022/02/24 08:16:05;;;;;;;12.10;2.33;;;;;;;7.79;67.09;100994.91;5060053;28;20765;-63
2022/02/24 08:18:30;;;;;;;9.30;1.92;;;;;;;7.81;67.58;101006.25;5066744;28;20491;-65
2022/02/24 08:20:56;;;;;;;8.85;1.98;;;;;;;7.84;67.48;101000.94;5059441;28;20078;-63
2022/02/24 08:23:21;;;;;;;12.65;2.10;;;;;;;7.89;67.27;100990.31;5055641;28;20490;-63
2022/02/24 08:25:47;;;;;;;7.75;2.00;;;;;;;7.80;67.50;100993.16;5067245;28;20451;-62
2022/02/24 08:28:12;;;;;;;8.55;1.95;;;;;;;7.79;67.32;100981.78;5048193;28;20055;-64
2022/02/24 08:30:37;;;;;;;10.50;2.00;;;;;;;7.88;67.21;100972.84;5035042;28;20032;-64
2022/02/24 08:33:03;;;;;;;14.13;2.42;;;;;;;7.89;67.12;100971.09;5046802;28;20056;-69
2022/02/24 08:35:28;;;;;;;9.32;2.30;;;;;;;7.98;66.78;100978.81;5055403;28;20475;-67
2022/02/24 08:37:54;;;;;;;7.35;1.80;;;;;;;7.99;66.90;100970.03;5055082;28;20090;-68
2022/02/24 08:40:21;;;;;;;11.65;2.40;;;;;;;8.05;66.66;100959.41;5055125;28;20406;-59
2022/02/24 08:42:48;;;;;;;14.50;2.45;;;;;;;8.05;66.48;100959.41;5053216;28;20028;-66
2022/02/24 08:45:13;;;;;;;7.70;1.73;;;;;;;8.18;66.18;100952.13;5047997;28;20044;-62
2022/02/24 08:47:40;;;;;;;7.53;1.83;;;;;;;8.11;66.40;100958.41;5046572;28;20020;-66
2022/02/24 08:50:06;;;;;;;9.32;2.13;;;;;;;8.06;66.25;100945.38;5046903;28;20389;-63
2022/02/24 08:52:31;;;;;;;10.45;2.33;;;;;;;8.09;66.13;100934.81;5046152;28;20112;-68
2022/02/24 08:54:57;;;;;;;12.82;2.53;;;;;;;8.22;65.82;100913.53;5046699;28;20514;-62
2022/02/24 08:57:22;;;;;;;6.72;2.35;;;;;;;8.21;65.82;100915.28;5046639;28;20111;-65
2022/02/24 08:59:48;;;;;;;8.20;2.00;;;;;;;8.28;65.94;100915.16;5045723;28;20143;-66
2022/02/24 09:02:13;;;;;;;9.13;2.03;;;;;;;8.31;66.04;100894.94;5055574;28;20450;-69
2022/02/24 09:04:38;;;;;;;10.63;2.10;;;;;;;8.36;65.66;100889.56;5056891;28;20714;-67
2022/02/24 09:07:04;;;;;;;12.55;2.05;;;;;;;8.43;65.61;100882.44;5054331;28;20487;-68
2022/02/24 09:09:29;;;;;;;7.82;2.00;;;;;;;8.44;65.56;100876.28;5055618;28;20028;-65
2022/02/24 09:11:54;;;;;;;10.00;2.28;;;;;;;8.48;65.06;100875.28;5057077;28;20068;-66
2022/02/24 09:14:20;;;;;;;10.55;2.13;;;;;;;8.56;64.90;100881.25;5064353;28;20143;-66
2022/02/24 09:16:45;;;;;;;11.45;2.60;;;;;;;8.56;64.60;100865.50;5066108;28;20044;-67
2022/02/24 09:19:11;;;;;;;12.00;2.45;;;;;;;8.51;65.15;100848.94;5067282;28;20039;-67
2022/02/24 09:21:38;;;;;;;8.85;1.85;;;;;;;8.60;64.63;100853.13;5066048;28;20028;-68
2022/02/24 09:24:03;;;;;;;10.90;2.45;;;;;;;8.67;64.66;100851.22;5066500;28;20052;-66
2022/02/24 09:26:28;;;;;;;13.70;2.42;;;;;;;8.71;65.13;100834.47;5065741;28;20479;-66
2022/02/24 09:28:54;;;;;;;19.35;2.60;;;;;;;8.73;64.71;100822.16;5063872;28;20103;-67
2022/02/24 09:31:20;;;;;;;12.50;2.45;;;;;;;8.88;63.92;100809.53;5066065;28;20123;-66
2022/02/24 09:33:46;;;;;;;9.13;2.20;;;;;;;8.93;64.59;100819.00;5066670;28;20043;-64
2022/02/24 09:36:11;;;;;;;12.82;3.67;;;;;;;8.93;63.44;100797.97;5067232;28;20037;-66
2022/02/24 09:38:37;;;;;;;7.97;2.25;;;;;;;8.79;64.09;100795.72;5066522;28;20536;-69
2022/02/24 09:41:04;;;;;;;13.73;3.30;;;;;;;8.74;64.67;100792.38;5061343;28;20032;-67
2022/02/24 09:43:31;;;;;;;11.68;2.67;;;;;;;8.70;65.17;100793.38;5053630;28;20032;-66
2022/02/24 09:45:59;;;;;;;13.80;2.20;;;;;;;8.70;65.27;100782.84;5054399;28;20100;-67
2022/02/24 09:48:31;;;;;;;9.35;2.08;;;;;;;8.65;65.20;100776.84;5065997;28;20024;-60
2022/02/24 09:50:57;;;;;;;15.88;3.10;;;;;;;8.57;66.12;100775.28;5064543;28;20025;-62
2022/02/24 09:53:24;;;;;;;14.93;3.22;;;;;;;8.61;65.54;100769.97;5066282;28;20024;-64
2022/02/24 09:55:50;;;;;;;15.85;3.17;;;;;;;8.59;65.87;100768.25;5066225;28;20513;-65
2022/02/24 09:58:16;;;;;;;13.50;3.08;;;;;;;8.65;65.55;100761.09;5066887;28;20017;-68
2022/02/24 10:00:41;;;;;;;13.15;3.28;;;;;;;8.68;65.71;100764.50;5066934;28;20374;-62
2022/02/24 10:03:26;;;;;;;12.65;2.80;;;;;;;8.68;66.01;100753.13;5065469;28;20043;-66
2022/02/24 10:05:51;;;;;;;15.18;2.90;;;;;;;8.90;65.41;100752.53;5065038;28;20024;-68
2022/02/24 10:08:16;;;;;;;11.07;3.05;;;;;;;9.19;64.25;100745.56;5055651;28;20040;-67
2022/02/24 10:10:43;;;;;;;11.55;3.08;;;;;;;9.49;63.24;100740.28;5048801;28;20025;-67
2022/02/24 10:13:13;;;;;;;12.63;3.22;;;;;;;9.34;63.46;100715.31;5051699;28;20029;-68
2022/02/24 10:15:44;;;;;;;12.80;2.97;;;;;;;9.14;63.67;100714.16;5045993;28;20053;-67
2022/02/24 10:18:15;;;;;;;13.90;3.10;;;;;;;9.19;64.29;100711.41;5029399;28;20087;-67
2022/02/24 10:21:01;;;;;;;15.02;3.30;;;;;;;9.18;64.20;100707.06;5056535;28;20098;-69
2022/02/24 10:23:34;;;;;;;16.27;2.90;;;;;;;9.19;64.24;100714.91;5059587;28;20028;-74
2022/02/24 10:26:05;;;;;;;14.32;2.60;;;;;;;9.27;64.15;100703.28;5059151;28;20036;-70
2022/02/24 10:28:35;;;;;;;13.40;2.88;;;;;;;9.37;64.47;100680.19;5053856;28;20521;-69
2022/02/24 10:31:08;;;;;;;15.35;3.05;;;;;;;9.65;63.38;100684.53;5061544;28;20029;-68
2022/02/24 10:33:33;;;;;;;9.10;2.83;;;;;;;9.85;63.12;100665.47;5053110;28;20108;-70
2022/02/24 10:36:07;;;;;;;15.50;2.60;;;;;;;9.82;62.50;100673.47;5056712;28;20342;-70
2022/02/24 10:38:33;;;;;;;19.17;3.10;;;;;;;9.82;62.03;100674.31;5063610;28;20094;-67
2022/02/24 10:40:58;;;;;;;14.68;2.63;;;;;;;9.77;62.60;100675.38;5061707;28;20025;-63
2022/02/24 10:43:30;;;;;;;7.82;2.63;;;;;;;9.75;62.44;100685.97;5050783;28;20056;-71
2022/02/24 10:46:28;;;;;;;13.07;2.45;;;;;;;9.43;63.69;100672.97;5046187;28;20036;-70
2022/02/24 10:48:55;;;;;;;12.27;3.08;;;;;;;9.52;62.77;100665.69;5043716;28;20037;-71
2022/02/24 10:51:34;;;;;;;14.05;3.60;;;;;;;9.76;62.53;100657.91;5046764;28;20032;-75
2022/02/24 10:54:07;;;;;;;15.55;2.83;;;;;;;9.81;62.51;100664.72;5045775;28;20573;-72
2022/02/24 10:56:42;;;;;;;10.40;3.35;;;;;;;9.97;62.50;100659.78;5044727;28;20112;-72
2022/02/24 10:59:09;;;;;;;9.82;3.08;;;;;;;10.06;61.44;100648.06;5045583;28;20029;-70
2022/02/24 11:01:35;;;;;;;9.13;2.50;;;;;;;10.04;61.60;100639.38;5046200;28;20028;-68
2022/02/24 11:04:03;;;;;;;10.77;3.15;;;;;;;10.02;61.23;100630.69;5046573;28;20040;-68
2022/02/24 11:06:33;;;;;;;17.60;3.00;;;;;;;10.13;61.24;100632.06;5029924;28;20036;-70
2022/02/24 11:08:58;;;;;;;10.10;2.40;;;;;;;9.89;62.00;100616.22;5047379;28;20009;-69
2022/02/24 11:11:28;;;;;;;12.93;3.08;;;;;;;10.01;62.15;100600.00;5047246;28;20040;-71
2022/02/24 11:13:55;;;;;;;9.93;2.83;;;;;;;10.03;61.15;100619.25;5047074;28;20103;-71
2022/02/24 11:16:21;;;;;;;9.93;3.05;;;;;;;9.86;61.35;100606.66;5043699;28;20053;-63
2022/02/24 11:18:46;;;;;;;14.05;2.42;;;;;;;9.84;61.99;100611.97;5044964;28;20049;-63
2022/02/24 11:21:14;;;;;;;12.45;2.40;;;;;;;9.73;62.35;100598.34;5047269;28;20029;-63